• Join FlightAware (Why Join?)
  • Login
  • US Flag 
02:52PM EDT


 

Airport Tracker/Info


-or-


 

Live Flight TrackerFlight Track Log ✈ JIA2469 ✈ 31-Jul-2013 ✈ KMGM - KCLT

Flight Track Log - Related Links

Times and Time Zones

All times are in EDT time to prevent confusion due to time zone crossing. See the JIA2469 flight status page for this flight to view local times or setup timezone preferences in your user account.

Time Position Orientation Groundspeed Altitude Reporting Facility
EDT Latitude Longitude Course Direction KTS MPH feet Rate Location/Type
12:54PM 32.4287 -86.1910 55° Northeast  Level FlightAware Approximate
12:54PM 32.3697 -86.4661 19° North 255 293 5,000  Level Atlanta Center
12:55PM 32.4934 -86.0944 55° Northeast  Level FlightAware Approximate
12:55PM 32.4108 -86.4008 53° Northeast 299 344 6,900  Level Atlanta Center
12:56PM 32.5547 -85.9939 47° Northeast  Level FlightAware Approximate
12:56PM 32.4333 -86.3078 74° East 293 337 9,600  Level Atlanta Center
12:57PM 32.6258 -85.9027 47° Northeast  Level FlightAware Approximate
12:57PM 32.4561 -86.2100 75° East 293 337 11,600  Level Atlanta Center
12:58PM 32.6916 -85.8065 56° Northeast  Level FlightAware Approximate
12:58PM 32.4744 -86.1069 78° East 303 349 13,700  Level Atlanta Center
12:59PM 32.4950 -86.0017 77° East 316 364 15,400 1,680 Climbing Atlanta Center
01:00PM 32.5133 -85.8961 78° East 323 372 17,100 1,380 Climbing Atlanta Center
01:01PM 32.5275 -85.7831 82° East 335 386 18,200 1,140 Climbing Atlanta Center
01:02PM 32.5417 -85.6625 82° East 347 399 19,400 1,200 Climbing Atlanta Center
01:03PM 32.5453 -85.5394 88° East 352 405 20,600 1,200 Climbing Atlanta Center
01:04PM 32.5528 -85.4214 86° East 362 417 21,800 1,200 Climbing Atlanta Center
01:05PM 32.5333 -85.2953 100° East 368 423 23,000 1,200 Climbing Atlanta Center
01:06PM 32.5219 -85.1819 97° East 368 423 24,200 900 Climbing Atlanta Center
01:07PM 32.5022 -85.0633 101° East 368 423 24,900 720 Climbing Atlanta Center
01:08PM 32.4989 -84.9475 92° East 363 418 25,700 840 Climbing Atlanta Center
01:09PM 32.4956 -84.8269 92° East 358 412 26,600 720 Climbing Atlanta Center
01:10PM 32.5317 -84.7139 69° East 358 412 27,200 480 Climbing Atlanta Center
01:11PM 32.5989 -84.6206 49° Northeast 342 394 27,600 420 Climbing Atlanta Center
01:12PM 32.6703 -84.5175 51° Northeast 356 410 28,100 540 Climbing Atlanta Center
01:13PM 32.7394 -84.4192 50° Northeast 373 429 28,700 420 Climbing Atlanta Center
01:14PM 32.8067 -84.3231 50° Northeast 373 429 29,000 120 Climbing Atlanta Center
01:15PM 32.8694 -84.2317 51° Northeast 384 442 29,000  Level Atlanta Center
01:16PM 32.9508 -84.1131 51° Northeast 403 464 29,000  Level Atlanta Center
01:17PM 33.0219 -84.0042 52° Northeast 408 470 29,000  Level Atlanta Center
01:18PM 33.0844 -83.9150 50° Northeast 401 461 29,000  Level Atlanta Center
01:19PM 33.1553 -83.8081 52° Northeast 401 461 29,000 -120 Level Atlanta Center
01:20PM 33.2261 -83.7036 51° Northeast 401 461 28,800 -660 Descending Atlanta Center
01:21PM 33.2947 -83.5989 52° Northeast 401 461 27,700 -900 Descending Atlanta Center
01:22PM 33.3650 -83.4942 51° Northeast 401 461 27,000 -360 Descending Atlanta Center
01:23PM 33.4356 -83.3892 51° Northeast 401 461 27,000  Level Atlanta Center
01:24PM 33.5100 -83.2814 50° Northeast 394 453 27,000  Level Atlanta Center
01:25PM 33.5761 -83.1786 52° Northeast 388 447 27,000  Level Atlanta Center
01:26PM 33.6444 -83.0781 51° Northeast 388 447 27,000  Level Atlanta Center
01:27PM 33.7144 -82.9750 51° Northeast 380 437 27,000  Level Atlanta Center
01:28PM 33.7825 -82.8742 51° Northeast 387 445 27,000  Level Atlanta Center
01:29PM 33.8483 -82.7681 53° Northeast 392 451 27,000  Level Atlanta Center
01:30PM 33.9200 -82.6619 51° Northeast 397 457 27,000  Level Atlanta Center
01:31PM 33.9878 -82.5556 52° Northeast 403 464 27,000 -240 Level Atlanta Center
01:32PM 34.0572 -82.4442 53° Northeast 403 464 26,600 -900 Descending Atlanta Center
01:33PM 34.1350 -82.3347 49° Northeast 419 482 25,200 -1,500 Descending Atlanta Center
01:34PM 34.2086 -82.2203 52° Northeast 425 489 23,700 -1,620 Descending Atlanta Center
01:35PM 34.2781 -82.1156 51° Northeast 416 479 22,000 -1,620 Descending Atlanta Center
01:36PM 34.3453 -82.0236 48° Northeast 388 447 20,500 -1,620 Descending Atlanta Center
01:37PM 34.4169 -81.9411 44° Northeast 360 414 18,800 -1,560 Descending Atlanta Center
01:38PM 34.4867 -81.8564 45° Northeast 354 407 17,400 -1,500 Descending Atlanta Center
01:39PM 34.5539 -81.7664 48° Northeast 349 402 15,800 -1,620 Descending Atlanta Center
01:40PM 34.6211 -81.6864 44° Northeast 349 402 14,200 -1,620 Descending Atlanta Center
01:41PM 34.6925 -81.5983 45° Northeast 327 376 12,400 -1,140 Descending Atlanta Center
01:42PM 34.7472 -81.5261 47° Northeast 321 369 12,000 -600 Descending Atlanta Center
01:43PM 34.8106 -81.4483 45° Northeast 321 369 11,400 -840 Descending Atlanta Center
01:44PM 34.8714 -81.3678 47° Northeast 321 369 10,400 -720 Descending Atlanta Center
01:45PM 34.9322 -81.2900 46° Northeast 315 362 10,000 -240 Descending Atlanta Center
01:46PM 34.9992 -81.2014 47° Northeast 315 362 10,000  Level Atlanta Center
01:47PM 35.0436 -81.1467 45° Northeast 310 357 10,000  Level Atlanta Center
01:48PM 35.1086 -81.0683 45° Northeast 310 357 10,000 -600 Level Atlanta Center
01:49PM 35.1919 -81.0703 359° North 282 325 8,900 -1,380 Descending Atlanta Center
01:50PM 35.3069 -81.0789 357° North 294 338 6,900 -1,260 Descending Atlanta Center
01:51PM 35.3886 -81.0886 354° North 294 338 6,000 -480 Descending Atlanta Center
01:52PM 35.4744 -81.0958 356° North 283 326 6,000  Level Atlanta Center
01:53PM 35.5433 -81.1011 356° North 233 268 6,000  Level Atlanta Center
01:54PM 35.5975 -81.0967 North 197 227 6,000  Level Atlanta Center
01:55PM 35.6083 -81.0347 78° East 191 220 6,000  Level Atlanta Center
01:56PM 35.5703 -81.0056 148° Southeast 168 193 6,000  Level Atlanta Center
01:58PM 35.5136 -80.9950 171° South 170 196 6,000 -180 Level Atlanta Center
01:58PM 35.4739 -80.9914 176° South 169 194 5,700 -720 Descending Atlanta Center
01:59PM 35.4239 -80.9906 179° South 169 194 4,700 -1,020 Descending Atlanta Center
02:00PM 35.3797 -80.9847 174° South 167 192 3,700 -900 Descending Atlanta Center
02:01PM 35.3381 -80.9811 176° South 165 190 3,000 -840 Descending Atlanta Center
02:03PM 35.2775 -80.9756 176° South 164 189 1,900 -840 Descending Atlanta Center
02:04PM 35.2397 -80.9719 176° South 136 157 1,100 -840 Descending Atlanta Center